createdAt,value
2018-04-12T00:01:00.569Z,66.90
2018-04-12T00:03:29.385Z,66.70
2018-04-12T00:05:58.085Z,66.50
2018-04-12T00:08:27.120Z,66.60
2018-04-12T00:10:56.159Z,66.50
2018-04-12T00:13:24.950Z,66.80
2018-04-12T00:15:53.647Z,67.50
2018-04-12T00:18:22.748Z,67.70
2018-04-12T00:20:51.752Z,68.40
2018-04-12T00:23:20.494Z,68.70
2018-04-12T00:25:49.884Z,68.90
2018-04-12T00:28:18.600Z,68.80
2018-04-12T00:30:47.793Z,68.70
2018-04-12T00:33:16.736Z,68.60
2018-04-12T00:35:45.477Z,69.20
2018-04-12T00:38:14.195Z,69.40
2018-04-12T00:40:43.371Z,68.90
2018-04-12T00:43:12.305Z,68.80
2018-04-12T00:45:41.041Z,68.40
2018-04-12T00:48:09.734Z,68.60
2018-04-12T00:50:38.451Z,68.20
2018-04-12T00:53:07.516Z,68.40
2018-04-12T00:55:36.182Z,68.80
2018-04-12T00:58:04.875Z,69.10
2018-04-12T01:00:34.086Z,68.60
2018-04-12T01:03:02.933Z,68.60
2018-04-12T01:05:31.777Z,68.50
2018-04-12T01:08:00.495Z,68.30
2018-04-12T01:10:29.239Z,68.20
2018-04-12T01:12:58.335Z,67.90
2018-04-12T01:15:27.270Z,67.80
2018-04-12T01:17:55.985Z,67.90
2018-04-12T01:20:25.076Z,67.90
2018-04-12T01:22:53.921Z,67.80
2018-04-12T01:25:22.790Z,67.70
2018-04-12T01:27:51.677Z,67.60
2018-04-12T01:30:20.773Z,67.50
2018-04-12T01:33:13.138Z,67.60
2018-04-12T01:35:42.310Z,67.50
2018-04-12T01:38:11.316Z,67.50
2018-04-12T01:40:40.092Z,67.20
2018-04-12T01:43:08.780Z,67.10
2018-04-12T01:45:37.872Z,67.10
2018-04-12T01:48:06.817Z,67.40
2018-04-12T01:50:35.555Z,67.40
2018-04-12T01:53:04.748Z,67.30
2018-04-12T01:55:33.759Z,67.30
2018-04-12T01:58:02.322Z,67.50
2018-04-12T02:00:31.213Z,67.70
2018-04-12T02:03:00.308Z,67.60
2018-04-12T02:05:29.323Z,67.50
2018-04-12T02:07:58.017Z,67.80
2018-04-12T02:10:27.192Z,67.80
2018-04-12T02:12:56.127Z,68.20
2018-04-12T02:15:24.868Z,68.20
2018-04-12T02:17:53.558Z,68.10
2018-04-12T02:20:22.340Z,68.10
2018-04-12T02:22:51.340Z,68.20
2018-04-12T02:25:20.510Z,68.10
2018-04-12T02:27:49.625Z,68.50
2018-04-12T02:30:18.615Z,68.50
2018-04-12T02:32:47.816Z,68.30
2018-04-12T02:35:16.760Z,68.20
2018-04-12T02:37:45.892Z,68.00
2018-04-12T02:40:14.582Z,68.20
2018-04-12T02:42:43.786Z,68.10
2018-04-12T02:45:12.765Z,68.10
2018-04-12T02:47:41.835Z,67.90
2018-04-12T02:50:10.550Z,68.10
2018-04-12T02:52:39.240Z,67.90
2018-04-12T02:55:08.363Z,67.80
2018-04-12T02:57:37.081Z,67.70
2018-04-12T03:00:06.143Z,67.40
2018-04-12T03:02:35.319Z,67.20
2018-04-12T03:05:04.000Z,67.30
2018-04-12T03:07:32.967Z,67.50
2018-04-12T03:10:01.684Z,68.00
2018-04-12T03:12:30.351Z,68.20
2018-04-12T03:14:59.144Z,67.20
2018-04-12T03:17:27.720Z,67.20
2018-04-12T03:19:56.424Z,67.80
2018-04-12T03:22:25.216Z,67.60
2018-04-12T03:24:54.235Z,67.40
2018-04-12T03:27:23.407Z,67.20
2018-04-12T03:29:52.347Z,67.20
2018-04-12T03:32:21.083Z,67.30
2018-04-12T03:34:50.280Z,67.80
2018-04-12T03:37:19.290Z,68.30
2018-04-12T03:39:47.947Z,68.90
2018-04-12T03:42:16.687Z,68.90
2018-04-12T03:44:45.663Z,68.70
2018-04-12T03:47:14.431Z,68.40
2018-04-12T03:49:43.204Z,68.50
2018-04-12T03:52:12.292Z,68.50
2018-04-12T03:54:40.993Z,69.10
2018-04-12T03:57:09.948Z,68.30
2018-04-12T03:59:38.768Z,68.60
2018-04-12T04:02:07.870Z,68.50
2018-04-12T04:04:36.570Z,68.60
2018-04-12T04:07:06.059Z,68.60
2018-04-12T04:09:35.005Z,68.80
2018-04-12T04:12:04.101Z,68.30
2018-04-12T04:14:44.743Z,67.90
2018-04-12T04:17:25.384Z,67.30
2018-04-12T04:20:05.681Z,66.90
2018-04-12T04:22:36.269Z,66.50
2018-04-12T04:25:05.205Z,66.60
2018-04-12T04:27:34.048Z,66.40
2018-04-12T04:30:03.348Z,66.20
2018-04-12T04:32:32.240Z,66.10
2018-04-12T04:35:01.336Z,66.30
2018-04-12T04:37:30.431Z,66.00
2018-04-12T04:39:59.933Z,65.90
2018-04-12T04:42:29.029Z,65.60
2018-04-12T04:44:58.039Z,65.60
2018-04-12T04:47:26.602Z,65.70
2018-04-12T04:49:55.422Z,65.80
2018-04-12T04:52:24.182Z,65.90
2018-04-12T04:54:53.168Z,66.00
2018-04-12T04:57:22.371Z,66.60
2018-04-12T04:59:51.467Z,66.10
2018-04-12T05:02:20.561Z,66.50
2018-04-12T05:04:49.393Z,66.60
2018-04-12T05:07:18.263Z,66.70
2018-04-12T05:09:47.517Z,66.70
2018-04-12T05:12:16.549Z,66.80
2018-04-12T05:14:45.962Z,66.50
2018-04-12T05:17:15.135Z,65.90
2018-04-12T05:19:43.975Z,66.30
2018-04-12T05:22:12.814Z,65.40
2018-04-12T05:24:41.532Z,65.90
2018-04-12T05:27:11.105Z,65.80
2018-04-12T05:29:40.203Z,65.80
2018-04-12T05:32:09.230Z,65.20
2018-04-12T05:34:38.394Z,65.10
2018-04-12T05:37:07.503Z,63.40
2018-04-12T05:39:36.502Z,60.00
2018-04-12T05:42:05.675Z,58.60
2018-04-12T05:44:34.372Z,56.50
2018-04-12T05:47:02.949Z,55.70
2018-04-12T05:49:31.732Z,55.00
2018-04-12T05:52:00.661Z,54.40
2018-04-12T05:54:29.515Z,54.20
2018-04-12T05:56:58.225Z,54.70
2018-04-12T05:59:27.613Z,55.30
2018-04-12T06:01:56.377Z,55.70
2018-04-12T06:04:25.469Z,56.50
2018-04-12T06:06:54.412Z,56.40
2018-04-12T06:09:23.061Z,57.40
2018-04-12T06:11:51.948Z,57.80
2018-04-12T06:14:21.015Z,58.30
2018-04-12T06:16:50.142Z,58.30
2018-04-12T06:19:19.647Z,58.60
2018-04-12T06:21:48.590Z,58.40
2018-04-12T06:24:17.221Z,58.70
2018-04-12T06:26:45.732Z,58.50
2018-04-12T06:29:14.271Z,58.80
2018-04-12T06:31:42.777Z,59.20
2018-04-12T06:34:12.520Z,59.00
2018-04-12T06:36:42.865Z,58.90
2018-04-12T06:39:13.577Z,59.20
2018-04-12T06:41:42.147Z,58.60
2018-04-12T06:44:11.419Z,58.80
2018-04-12T06:46:40.383Z,58.80
2018-04-12T06:49:08.937Z,59.40
2018-04-12T06:51:37.476Z,59.80
2018-04-12T06:54:06.164Z,59.30
2018-04-12T06:56:34.723Z,59.50
2018-04-12T06:59:03.247Z,59.10
2018-04-12T07:01:31.803Z,58.90
2018-04-12T07:04:00.323Z,58.70
2018-04-12T07:06:28.844Z,58.30
2018-04-12T07:08:57.343Z,58.90
2018-04-12T07:11:25.851Z,58.00
2018-04-12T07:13:54.374Z,57.80
2018-04-12T07:16:23.023Z,57.40
2018-04-12T07:18:52.077Z,57.40
2018-04-12T07:21:20.786Z,57.80
2018-04-12T07:23:49.571Z,57.10
2018-04-12T07:26:18.521Z,57.00
2018-04-12T07:28:47.234Z,57.10
2018-04-12T07:31:16.834Z,57.10
2018-04-12T07:33:47.383Z,56.50
2018-04-12T07:36:16.198Z,56.30
2018-04-12T07:38:45.122Z,55.90
2018-04-12T07:41:14.694Z,55.50
2018-04-12T07:43:43.583Z,55.50
2018-04-12T07:46:12.653Z,55.40
2018-04-12T07:48:42.410Z,55.30
2018-04-12T07:51:11.003Z,54.40
2018-04-12T07:53:39.524Z,54.20
2018-04-12T07:56:08.039Z,53.90
2018-04-12T07:58:36.703Z,54.00
2018-04-12T08:01:05.598Z,53.90
2018-04-12T08:03:34.593Z,53.80
2018-04-12T08:06:04.114Z,53.90
2018-04-12T08:08:32.877Z,54.40
2018-04-12T08:11:01.896Z,53.90
2018-04-12T08:13:31.390Z,53.40
2018-04-12T08:16:00.157Z,53.10
2018-04-12T08:18:29.222Z,53.10
2018-04-12T08:20:57.942Z,53.10
2018-04-12T08:23:26.879Z,51.50
2018-04-12T08:25:56.425Z,51.60
2018-04-12T08:28:25.111Z,51.40
2018-04-12T08:30:53.805Z,51.00
2018-04-12T08:33:22.496Z,50.80
2018-04-12T08:35:51.163Z,50.50
2018-04-12T08:38:19.960Z,50.60
2018-04-12T08:40:48.649Z,50.00
2018-04-12T08:43:17.616Z,50.10
2018-04-12T08:45:46.231Z,49.80
2018-04-12T08:48:15.128Z,49.60
2018-04-12T08:50:44.139Z,49.40
2018-04-12T08:53:12.908Z,49.40
2018-04-12T08:55:41.589Z,49.70
2018-04-12T08:58:10.687Z,49.40
2018-04-12T09:00:39.576Z,48.90
2018-04-12T09:03:08.467Z,49.00
2018-04-12T09:05:36.968Z,49.00
2018-04-12T09:08:06.130Z,49.00
2018-04-12T09:10:34.731Z,48.80
2018-04-12T09:13:03.243Z,48.70
2018-04-12T09:15:31.777Z,48.60
2018-04-12T09:18:00.359Z,48.70
2018-04-12T09:20:29.271Z,47.30
2018-04-12T09:22:58.281Z,46.80
2018-04-12T09:25:27.799Z,46.50
2018-04-12T09:27:56.309Z,46.20
2018-04-12T09:30:24.814Z,46.40
2018-04-12T09:32:53.352Z,46.10
2018-04-12T09:35:22.211Z,44.70
2018-04-12T09:37:51.300Z,44.50
2018-04-12T09:40:20.305Z,44.10
2018-04-12T09:42:49.639Z,43.90
2018-04-12T09:45:18.132Z,43.20
2018-04-12T09:47:46.768Z,41.70
2018-04-12T09:50:15.314Z,42.70
2018-04-12T09:52:44.227Z,41.30
2018-04-12T09:55:13.179Z,40.30
2018-04-12T09:57:41.893Z,40.90
2018-04-12T10:00:10.686Z,40.20
2018-04-12T10:02:54.989Z,39.70
2018-04-12T10:05:28.992Z,39.40
2018-04-12T10:08:03.245Z,38.50
2018-04-12T10:10:31.906Z,37.40
2018-04-12T10:13:00.423Z,37.20
2018-04-12T10:15:28.984Z,36.80
2018-04-12T10:17:57.640Z,35.90
2018-04-12T10:20:26.216Z,36.10
2018-04-12T10:22:54.984Z,35.50
2018-04-12T10:25:23.678Z,35.60
2018-04-12T10:27:52.694Z,35.00
2018-04-12T10:30:21.555Z,35.10
2018-04-12T10:32:50.607Z,35.60
2018-04-12T10:35:19.673Z,35.30
2018-04-12T10:37:48.840Z,35.80
2018-04-12T10:40:17.853Z,35.40
2018-04-12T10:42:46.409Z,35.80
2018-04-12T10:45:15.301Z,35.90
2018-04-12T10:47:44.399Z,35.00
2018-04-12T10:50:13.349Z,35.10
2018-04-12T10:52:42.163Z,34.60
2018-04-12T10:55:11.690Z,35.60
2018-04-12T10:57:40.220Z,35.20
2018-04-12T11:00:08.734Z,35.50
2018-04-12T11:02:37.603Z,35.50
2018-04-12T11:05:06.424Z,35.50
2018-04-12T11:07:35.440Z,35.40
2018-04-12T11:10:04.208Z,35.80
2018-04-12T11:12:33.546Z,35.90
2018-04-12T11:15:02.287Z,36.10
2018-04-12T11:17:30.978Z,36.20
2018-04-12T11:19:59.670Z,36.10
2018-04-12T11:22:28.340Z,35.90
2018-04-12T11:24:57.144Z,36.20
2018-04-12T11:27:25.796Z,35.70
2018-04-12T11:29:54.932Z,35.30
2018-04-12T11:32:23.445Z,35.60
2018-04-12T11:34:52.176Z,35.40
2018-04-12T11:37:20.974Z,35.60
2018-04-12T11:39:49.579Z,35.70
2018-04-12T11:42:18.702Z,35.90
2018-04-12T11:44:47.854Z,35.50
2018-04-12T11:47:16.907Z,35.80
2018-04-12T11:49:45.611Z,35.50
2018-04-12T11:52:14.564Z,34.60
2018-04-12T11:54:43.411Z,33.50
2018-04-12T11:57:11.919Z,33.90
2018-04-12T11:59:41.604Z,33.30
2018-04-12T12:02:10.099Z,33.00
2018-04-12T12:04:38.581Z,33.10
2018-04-12T12:07:07.238Z,33.20
2018-04-12T12:09:35.727Z,32.50
2018-04-12T12:12:04.238Z,31.90
2018-04-12T12:14:32.757Z,32.50
2018-04-12T12:17:01.326Z,32.30
2018-04-12T12:19:29.834Z,32.10
2018-04-12T12:21:58.347Z,32.20
2018-04-12T12:24:26.899Z,32.00
2018-04-12T12:26:55.521Z,31.90
2018-04-12T12:29:24.017Z,31.80
2018-04-12T12:31:52.496Z,31.90
2018-04-12T12:34:20.985Z,31.70
2018-04-12T12:36:49.529Z,30.80
2018-04-12T12:39:18.856Z,30.70
2018-04-12T12:41:47.357Z,30.70
2018-04-12T12:44:15.837Z,30.10
2018-04-12T12:46:44.364Z,30.50
2018-04-12T12:49:13.012Z,30.10
2018-04-12T12:51:41.539Z,29.60
2018-04-12T12:54:10.098Z,29.40
2018-04-12T12:56:39.432Z,28.60
2018-04-12T12:59:08.870Z,29.20
2018-04-12T13:01:37.374Z,29.10
2018-04-12T13:04:07.027Z,28.90
2018-04-12T13:06:35.680Z,28.80
2018-04-12T13:09:04.238Z,28.70
2018-04-12T13:11:33.569Z,28.20
2018-04-12T13:14:02.846Z,27.70
2018-04-12T13:16:31.373Z,27.60
2018-04-12T13:19:00.700Z,28.20
2018-04-12T13:21:29.212Z,28.10
2018-04-12T13:23:57.742Z,28.10
2018-04-12T13:26:26.835Z,27.90
2018-04-12T13:28:55.345Z,28.00
2018-04-12T13:31:23.881Z,27.80
2018-04-12T13:33:52.492Z,27.40
2018-04-12T13:36:21.031Z,27.30
2018-04-12T13:38:49.649Z,26.90
2018-04-12T13:41:18.216Z,27.60
2018-04-12T13:43:47.530Z,27.40
2018-04-12T13:46:16.201Z,27.40
2018-04-12T13:48:45.514Z,27.30
2018-04-12T13:51:14.813Z,27.40
2018-04-12T13:53:43.364Z,27.40
2018-04-12T13:56:12.013Z,27.10
2018-04-12T13:58:40.527Z,27.20
2018-04-12T14:01:09.101Z,27.50
2018-04-12T14:03:37.715Z,27.80
2018-04-12T14:06:06.223Z,27.30
2018-04-12T14:08:34.737Z,27.30
2018-04-12T14:11:03.366Z,26.90
2018-04-12T14:13:31.898Z,26.80
2018-04-12T14:16:00.404Z,27.30
2018-04-12T14:18:29.053Z,27.40
2018-04-12T14:20:57.615Z,27.20
2018-04-12T14:23:26.925Z,27.00
2018-04-12T14:25:55.665Z,26.90
2018-04-12T14:28:24.629Z,26.60
2018-04-12T14:30:53.477Z,26.90
2018-04-12T14:33:22.539Z,26.60
2018-04-12T14:35:51.581Z,26.50
2018-04-12T14:38:20.761Z,27.00
2018-04-12T14:40:49.445Z,26.50
2018-04-12T14:43:18.081Z,26.40
2018-04-12T14:45:47.146Z,26.50
2018-04-12T14:48:15.814Z,27.00
2018-04-12T14:50:44.482Z,27.10
2018-04-12T14:53:14.109Z,26.30
2018-04-12T14:55:43.465Z,26.20
2018-04-12T14:58:12.705Z,26.30
2018-04-12T15:00:41.211Z,26.30
2018-04-12T15:03:09.765Z,26.60
2018-04-12T15:05:38.748Z,26.50
2018-04-12T15:08:07.886Z,26.20
2018-04-12T15:10:36.953Z,26.30
2018-04-12T15:13:05.486Z,25.80
2018-04-12T15:15:34.188Z,25.90
2018-04-12T15:18:02.727Z,25.80
2018-04-12T15:20:31.209Z,26.10
2018-04-12T15:22:59.693Z,25.40
2018-04-12T15:25:28.255Z,25.80
2018-04-12T15:27:56.811Z,26.20
2018-04-12T15:30:25.367Z,26.30
2018-04-12T15:32:53.856Z,25.80
2018-04-12T15:35:22.340Z,26.20
2018-04-12T15:37:50.888Z,26.20
2018-04-12T15:40:19.503Z,26.50
2018-04-12T15:42:48.034Z,26.60
2018-04-12T15:45:16.522Z,26.70
2018-04-12T15:47:45.027Z,26.60
2018-04-12T15:50:13.569Z,26.70
2018-04-12T15:52:42.861Z,26.60
2018-04-12T15:55:11.613Z,26.70
2018-04-12T15:57:40.143Z,26.80
2018-04-12T16:00:08.654Z,27.10
2018-04-12T16:02:37.265Z,26.40
2018-04-12T16:05:05.874Z,26.10
2018-04-12T16:07:34.583Z,26.10
2018-04-12T16:10:04.182Z,25.90
2018-04-12T16:12:32.656Z,25.70
2018-04-12T16:15:01.144Z,25.90
2018-04-12T16:17:29.654Z,25.70
2018-04-12T16:19:58.423Z,25.90
2018-04-12T16:22:27.724Z,26.00
2018-04-12T16:24:56.234Z,26.00
2018-04-12T16:27:24.735Z,26.00
2018-04-12T16:29:53.355Z,26.10
2018-04-12T16:32:21.846Z,26.20
2018-04-12T16:34:51.158Z,26.10
2018-04-12T16:37:20.414Z,26.10
2018-04-12T16:39:48.934Z,26.10
2018-04-12T16:42:18.224Z,26.30
2018-04-12T16:44:46.732Z,26.30
2018-04-12T16:47:15.241Z,26.20
2018-04-12T16:49:43.792Z,26.70
2018-04-12T16:52:12.537Z,26.70
2018-04-12T16:54:41.040Z,26.20
2018-04-12T16:57:10.283Z,26.30
2018-04-12T16:59:39.011Z,26.30
2018-04-12T17:02:07.624Z,26.40
2018-04-12T17:04:36.102Z,26.10
2018-04-12T17:07:04.622Z,25.70
2018-04-12T17:09:33.117Z,26.20
2018-04-12T17:12:01.681Z,26.40
2018-04-12T17:14:30.203Z,26.20
2018-04-12T17:16:58.829Z,26.30
2018-04-12T17:19:28.524Z,26.80
2018-04-12T17:21:57.706Z,26.70
2018-04-12T17:24:26.832Z,27.20
2018-04-12T17:26:55.293Z,27.00
2018-04-12T17:29:23.781Z,27.20
2018-04-12T17:31:52.340Z,26.90
2018-04-12T17:34:20.824Z,27.10
2018-04-12T17:36:49.743Z,27.50
2018-04-12T17:39:18.273Z,27.40
2018-04-12T17:41:48.012Z,27.60
2018-04-12T17:44:16.490Z,27.50
2018-04-12T17:46:45.038Z,27.80
2018-04-12T17:49:13.608Z,27.80
2018-04-12T17:51:42.211Z,27.80
2018-04-12T17:54:10.697Z,27.80
2018-04-12T17:56:39.160Z,28.20
2018-04-12T17:59:07.751Z,28.10
2018-04-12T18:01:36.375Z,28.50
2018-04-12T18:04:04.898Z,28.90
2018-04-12T18:06:33.388Z,28.90
2018-04-12T18:09:02.940Z,29.70
2018-04-12T18:11:31.458Z,29.70
2018-04-12T18:14:00.903Z,30.30
2018-04-12T18:16:29.410Z,30.20
2018-04-12T18:18:57.898Z,30.80
2018-04-12T18:21:26.518Z,31.20
2018-04-12T18:23:55.056Z,31.60
2018-04-12T18:26:23.580Z,32.10
2018-04-12T18:28:52.071Z,32.50
2018-04-12T18:31:20.553Z,32.80
2018-04-12T18:33:49.504Z,33.00
2018-04-12T18:36:18.887Z,33.80
2018-04-12T18:38:47.663Z,34.00
2018-04-12T18:41:16.220Z,33.60
2018-04-12T18:43:45.162Z,34.00
2018-04-12T18:46:13.645Z,33.70
2018-04-12T18:48:42.180Z,33.80
2018-04-12T18:51:11.212Z,34.10
2018-04-12T18:53:39.900Z,34.00
2018-04-12T18:56:09.000Z,33.90
2018-04-12T18:58:38.025Z,34.10
2018-04-12T19:01:07.183Z,34.30
2018-04-12T19:03:36.284Z,34.70
2018-04-12T19:06:04.753Z,34.80
2018-04-12T19:08:33.212Z,34.90
2018-04-12T19:11:02.260Z,34.90
2018-04-12T19:13:31.309Z,34.70
2018-04-12T19:16:00.043Z,34.60
2018-04-12T19:18:29.215Z,34.50
2018-04-12T19:20:57.898Z,34.40
2018-04-12T19:23:26.545Z,34.80
2018-04-12T19:25:55.681Z,34.70
2018-04-12T19:28:24.334Z,34.60
2018-04-12T19:30:52.815Z,34.20
2018-04-12T19:33:21.357Z,34.10
2018-04-12T19:35:49.886Z,34.30
2018-04-12T19:38:19.208Z,34.40
2018-04-12T19:40:47.680Z,34.90
2018-04-12T19:43:16.145Z,34.20
2018-04-12T19:45:44.660Z,34.50
2018-04-12T19:48:13.314Z,34.50
2018-04-12T19:50:41.812Z,34.50
2018-04-12T19:53:11.089Z,34.60
2018-04-12T19:55:39.808Z,34.60
2018-04-12T19:58:09.072Z,34.50
2018-04-12T20:00:38.097Z,34.50
2018-04-12T20:03:07.185Z,34.50
2018-04-12T20:05:35.718Z,34.20
2018-04-12T20:08:04.247Z,34.80
2018-04-12T20:10:32.735Z,34.90
2018-04-12T20:13:01.290Z,34.80
2018-04-12T20:15:30.218Z,35.10
2018-04-12T20:17:59.234Z,35.20
2018-04-12T20:20:28.406Z,35.50
2018-04-12T20:22:57.544Z,35.60
2018-04-12T20:25:26.009Z,35.50
2018-04-12T20:27:54.515Z,35.70
2018-04-12T20:30:23.017Z,36.00
2018-04-12T20:32:51.526Z,35.70
2018-04-12T20:35:20.520Z,36.00
2018-04-12T20:37:49.039Z,35.80
2018-04-12T20:40:17.523Z,35.80
2018-04-12T20:42:46.099Z,35.80
2018-04-12T20:45:15.196Z,35.80
2018-04-12T20:47:43.710Z,35.90
2018-04-12T20:50:12.177Z,36.00
2018-04-12T20:52:40.824Z,36.00
2018-04-12T20:55:09.588Z,36.00
2018-04-12T20:57:38.199Z,36.20
2018-04-12T21:00:06.871Z,36.20
2018-04-12T21:02:36.059Z,36.40
2018-04-12T21:05:05.571Z,36.20
2018-04-12T21:07:34.040Z,36.20
2018-04-12T21:10:02.572Z,36.60
2018-04-12T21:12:31.187Z,36.50
2018-04-12T21:14:59.675Z,36.70
2018-04-12T21:17:28.155Z,36.30
2018-04-12T21:19:56.646Z,36.50
2018-04-12T21:22:25.259Z,36.60
2018-04-12T21:24:54.546Z,38.20
2018-04-12T21:27:23.326Z,38.20
2018-04-12T21:29:52.272Z,36.90
2018-04-12T21:32:20.987Z,36.80
2018-04-12T21:34:49.706Z,37.00
2018-04-12T21:37:18.874Z,37.10
2018-04-12T21:39:47.987Z,37.30
2018-04-12T21:42:16.663Z,37.90
2018-04-12T21:44:45.307Z,38.30
2018-04-12T21:47:14.458Z,38.70
2018-04-12T21:49:43.043Z,38.80
2018-04-12T21:52:11.628Z,39.10
2018-04-12T21:54:40.129Z,39.10
2018-04-12T21:57:09.156Z,39.30
2018-04-12T21:59:38.296Z,39.50
2018-04-12T22:02:07.244Z,39.60
2018-04-12T22:04:35.957Z,39.80
2018-04-12T22:07:04.647Z,40.00
2018-04-12T22:09:33.339Z,40.40
2018-04-12T22:12:02.031Z,40.60
2018-04-12T22:14:30.816Z,41.00
2018-04-12T22:16:59.908Z,41.50
2018-04-12T22:19:28.930Z,41.70
2018-04-12T22:21:58.101Z,42.10
2018-04-12T22:24:26.627Z,42.40
2018-04-12T22:26:55.384Z,42.40
2018-04-12T22:29:24.054Z,42.80
2018-04-12T22:31:53.255Z,42.90
2018-04-12T22:34:22.346Z,42.90
2018-04-12T22:36:51.445Z,43.50
2018-04-12T22:39:20.089Z,43.30
2018-04-12T22:41:48.815Z,43.30
2018-04-12T22:44:17.824Z,43.60
2018-04-12T22:46:47.417Z,43.80
2018-04-12T22:49:16.484Z,43.70
2018-04-12T22:51:45.523Z,43.80
2018-04-12T22:54:14.239Z,44.00
2018-04-12T22:56:42.913Z,44.00
2018-04-12T22:59:11.924Z,44.10
2018-04-12T23:01:40.640Z,44.70
2018-04-12T23:04:09.705Z,44.90
2018-04-12T23:06:38.422Z,44.90
2018-04-12T23:09:07.224Z,45.00
2018-04-12T23:11:36.320Z,45.10
2018-04-12T23:14:05.417Z,45.40
2018-04-12T23:16:34.340Z,45.80
2018-04-12T23:19:03.082Z,45.80
2018-04-12T23:21:32.290Z,45.90
2018-04-12T23:24:01.373Z,46.30
2018-04-12T23:26:30.486Z,46.10
2018-04-12T23:28:58.969Z,46.50
2018-04-12T23:31:27.858Z,46.40
2018-04-12T23:33:56.951Z,46.40
2018-04-12T23:36:25.948Z,46.10
2018-04-12T23:38:54.640Z,46.30
2018-04-12T23:41:23.331Z,46.30
2018-04-12T23:43:52.425Z,46.50
2018-04-12T23:46:21.117Z,46.50
2018-04-12T23:48:50.290Z,46.70
2018-04-12T23:51:18.974Z,47.00
2018-04-12T23:53:48.074Z,47.00
2018-04-12T23:56:17.083Z,46.70
2018-04-12T23:58:45.748Z,46.90
